Latest Coastal Weather Observations for Ngayawili (Elcho Island)

IDD60701

Issued at 9:41 am CST Saturday 21 April 2018 (issued every 10 minutes, with the page automatically refreshed every 10 minutes)

About coastal observations | Map of coastal stations | Coastal observations for NT | Marine services | Other Formats
Station Details ID: 014517 Name: NGAYAWILI Lat: -12.00 Lon: 135.57 Height: 8.1 m
Data from the previous 72 hours. | See also: Recent months at Ngayawili (Elcho Island)
Date/Time
CST
Temp
°C
Wind Pressure Rain since
9am
mm
Weather Cloud Vis
km
Sea
Height
m
Swell
Dir  Spd
kts
Gust
kts
hPa Trend Height
m
Period
s
Dir
21/09:30am 28.8 ESE 10 16 1011.9 - 0.0 - - - - - - -
21/09:00am 28.4 ESE 9 15 1011.8 - 0.0 - - - - - - -
21/08:30am 27.5 ESE 8 13 1011.6 - 0.0 - - - - - - -
21/08:00am 26.2 SE 5 8 1011.5 - 0.0 - - - - - - -
21/07:30am 24.7 SE 4 5 1011.5 - 0.0 - - - - - - -
21/07:00am 23.3 SSE 4 5 1011.3 - 0.0 - - - - - - -
21/06:30am 22.8 SSE 1 4 1011.1 - 0.0 - - - - - - -
21/06:00am 23.3 CALM 0 0 1010.7 - 0.0 - - - - - - -
21/05:30am 23.7 CALM 0 3 1010.5 - 0.0 - - - - - - -
21/05:00am 24.2 CALM 0 0 1010.3 - 0.0 - - - - - - -
21/04:30am 24.5 SSE 1 4 1010.1 - 0.0 - - - - - - -
21/04:00am 24.5 SE 3 5 1010.0 - 0.0 - - - - - - -
21/03:30am 24.3 CALM 0 0 1010.1 - 0.0 - - - - - - -
21/03:00am 24.6 SSE 3 3 1010.2 - 0.0 - - - - - - -
21/02:30am 24.8 SE 4 5 1010.3 - 0.0 - - - - - - -
21/02:00am 25.0 SSE 3 4 1010.6 - 0.0 - - - - - - -
21/01:30am 25.4 SSE 4 6 1010.7 - 0.0 - - - - - - -
21/01:00am 25.5 SE 4 6 1011.0 - 0.0 - - - - - - -
21/12:30am 25.4 SE 4 5 1011.0 - 0.0 - - - - - - -
21/12:00am 25.3 SE 4 5 1011.0 - 0.0 - - - - - - -
 
Date/Time
CST
Temp
°C
Wind Pressure Rain since
9am
mm
Weather Cloud Vis
km
Sea
Height
m
Swell
Dir  Spd
kts
Gust
kts
hPa Trend Height
m
Period
s
Dir
20/11:30pm 25.5 SE 4 5 1011.1 - 0.0 - - - - - - -
20/11:00pm 25.6 ESE 4 5 1011.5 - 0.0 - - - - - - -
20/10:30pm 25.9 ESE 4 5 1011.6 - 0.0 - - - - - - -
20/10:00pm 25.6 ESE 4 6 1011.8 - 0.0 - - - - - - -
20/09:30pm 24.8 ESE 1 3 1011.8 - 0.0 - - - - - - -
20/09:00pm 25.2 ESE 3 4 1011.5 - 0.0 - - - - - - -
20/08:30pm 25.6 CALM 0 0 1011.2 - 0.0 - - - - - - -
20/08:00pm 26.6 E 3 4 1010.7 - 0.0 - - - - - - -
20/07:30pm 27.1 ENE 3 4 1010.2 - 0.0 - - - - - - -
20/07:00pm 27.8 E 4 5 1009.9 - 0.0 - - - - - - -
20/06:30pm 28.3 E 4 6 1009.8 - 0.0 - - - - - - -
20/06:00pm 28.6 ENE 4 7 1009.6 - 0.0 - - - - - - -
20/05:30pm 29.1 E 6 9 1009.4 - 0.0 - - - - - - -
20/05:00pm 29.9 E 8 14 1009.0 - 0.0 - - - - - - -
20/04:30pm 30.4 NE 8 14 1008.7 - 0.0 - - - - - - -
20/04:00pm 30.0 ENE 9 15 1008.6 - 0.0 - - - - - - -
20/03:30pm 29.9 NE 7 11 1008.7 - 0.0 - - - - - - -
20/03:00pm 29.3 ENE 7 11 1008.9 - 0.0 - - - - - - -
20/02:30pm 29.7 ENE 9 17 1009.1 - 0.0 - - - - - - -
20/02:00pm 30.8 ENE 7 13 1009.2 - 0.0 - - - - - - -
20/01:30pm 31.1 ENE 9 16 1009.5 - 0.0 - - - - - - -
20/01:00pm 30.9 ESE 9 14 1009.7 - 0.0 - - - - - - -
20/12:30pm 31.5 E 7 11 1009.9 - 0.0 - - - - - - -
20/12:00pm 31.5 E 8 13 1010.3 - 0.0 - - - - - - -
20/11:30am 30.8 ESE 9 15 1010.9 - 0.0 - - - - - - -
20/11:00am 30.7 ESE 9 15 1011.3 - 0.0 - - - - - - -
20/10:30am 30.2 ESE 9 15 1011.7 - 0.0 - - - - - - -
20/10:00am 30.0 ESE 7 12 1011.7 - 0.0 - - - - - - -
20/09:30am 29.5 ESE 7 12 1011.6 - 0.0 - - - - - - -
20/09:00am 28.8 ESE 8 13 1011.4 - 8.0 - - - - - - -
20/08:30am 27.9 SE 6 10 1011.1 - 8.0 - - - - - - -
20/08:00am 27.2 SE 6 12 1010.9 - 8.0 - - - - - - -
20/07:30am 26.5 SSE 3 5 1010.7 - 8.0 - - - - - - -
20/07:00am 25.7 SE 4 5 1010.3 - 8.0 - - - - - - -
20/06:30am 25.5 SE 3 5 1009.9 - 8.0 - - - - - - -
20/06:00am 25.7 SE 4 7 1009.6 - 8.0 - - - - - - -
20/05:30am 25.9 ESE 4 7 1009.3 - 8.0 - - - - - - -
20/05:00am 26.1 ESE 5 6 1009.1 - 8.0 - - - - - - -
20/04:30am 26.3 ESE 5 8 1008.9 - 8.0 - - - - - - -
20/04:00am 26.2 ESE 5 7 1009.1 - 7.8 - - - - - - -
20/03:30am 26.1 ESE 4 6 1009.1 - 7.8 - - - - - - -
20/03:00am 26.1 ESE 5 6 1009.3 - 7.8 - - - - - - -
20/02:30am 26.2 SE 5 8 1009.4 - 7.8 - - - - - - -
20/02:00am 26.1 SE 5 8 1009.6 - 7.8 - - - - - - -
20/01:30am 26.1 SE 5 7 1009.8 - 7.8 - - - - - - -
20/01:00am 26.1 SSE 4 5 1010.1 - 7.8 - - - - - - -
20/12:30am 26.1 SE 4 6 1010.4 - 7.8 - - - - - - -
20/12:00am 26.0 SE 4 6 1010.5 - 7.8 - - - - - - -
 
Date/Time
CST
Temp
°C
Wind Pressure Rain since
9am
mm
Weather Cloud Vis
km
Sea
Height
m
Swell
Dir  Spd
kts
Gust
kts
hPa Trend Height
m
Period
s
Dir
19/11:30pm 26.1 SSE 3 5 1010.9 - 7.8 - - - - - - -
19/11:00pm 26.1 S 4 5 1011.0 - 7.8 - - - - - - -
19/10:30pm 25.9 CALM 0 0 1011.1 - 7.8 - - - - - - -
19/10:00pm 26.1 SSE 1 4 1011.2 - 7.8 - - - - - - -
19/09:30pm 26.2 CALM 0 0 1011.1 - 7.8 - - - - - - -
19/09:00pm 26.1 SSE 4 6 1010.6 - 7.8 - - - - - - -
19/08:30pm 26.0 S 4 5 1010.5 - 7.8 - - - - - - -
19/08:00pm 25.6 SSE 4 5 1010.0 - 7.8 - - - - - - -
19/07:30pm 25.0 SE 3 4 1009.7 - 7.8 - - - - - - -
19/07:00pm 24.7 SSE 5 8 1009.4 - 7.6 - - - - - - -
19/06:30pm 25.7 SSE 12 20 1009.6 - 5.2 - - - - - - -
19/06:22pm 27.3 SE 7 20 1009.4 - 4.8 - - - - - - -
19/06:00pm 28.6 ESE 4 6 1008.9 - 4.8 - - - - - - -
19/05:30pm 28.8 SE 6 9 1008.9 - 4.8 - - - - - - -
19/05:00pm 30.6 ENE 8 13 1008.6 - 4.8 - - - - - - -
19/04:30pm 30.9 ENE 7 11 1008.4 - 4.8 - - - - - - -
19/04:00pm 30.6 E 9 15 1008.5 - 4.8 - - - - - - -
19/03:30pm 30.5 E 7 11 1008.3 - 4.8 - - - - - - -
19/03:00pm 29.9 ESE 9 14 1008.4 - 4.8 Recent precip. - - - - - -
19/02:30pm 27.8 E 5 8 1008.6 - 4.8 - - - - - - -
19/02:00pm 25.7 ENE 14 24 1009.0 - 4.2 - - - - - - -
19/01:59pm 25.7 ENE 14 24 1009.0 - 4.2 - - - - - - -
19/01:30pm 30.7 E 9 16 1008.9 - 0.4 - - - - - - -
19/01:00pm 30.5 E 9 15 1009.5 - 0.4 - - - - - - -
19/12:30pm 30.8 E 9 15 1009.9 - 0.2 - - - - - - -
19/12:00pm 28.6 E 8 12 1010.3 - 0.2 - - - - - - -
19/11:30am 31.1 E 8 13 1010.6 - 0.2 - - - - - - -
19/11:00am 30.4 ESE 7 12 1011.0 - 0.2 - - - - - - -
19/10:30am 29.4 ESE 7 10 1011.5 - 0.2 - - - - - - -
19/10:00am 29.4 ESE 4 8 1011.6 - 0.2 - - - - - - -
19/09:30am 28.3 ESE 4 7 1011.6 - 0.0 - - - - - - -
19/09:00am 28.1 ESE 7 11 1011.3 - 11.2 - - - - - - -
19/08:30am 27.4 SE 5 7 1011.2 - 11.2 - - - - - - -
19/08:00am 27.0 ESE 5 8 1011.1 - 11.2 - - - - - - -
19/07:30am 26.3 SE 5 7 1011.0 - 11.2 - - - - - - -
19/07:00am 25.9 SE 4 7 1010.7 - 11.2 - - - - - - -
19/06:30am 25.9 ESE 5 8 1010.1 - 11.2 - - - - - - -
19/06:00am 25.8 E 6 9 1009.7 - 11.2 - - - - - - -
19/05:30am 25.7 E 6 9 1009.5 - 11.2 - - - - - - -
19/05:00am 25.5 ESE 6 10 1009.2 - 11.2 - - - - - - -
19/04:30am 25.3 ESE 6 8 1009.0 - 11.2 - - - - - - -
19/04:00am 25.1 SE 6 7 1008.8 - 11.2 - - - - - - -
19/03:30am 24.8 ESE 5 8 1008.7 - 11.2 - - - - - - -
19/03:00am 24.7 SE 6 10 1008.6 - 11.2 - - - - - - -
19/02:30am 24.4 SE 7 11 1008.8 - 11.2 - - - - - - -
19/02:00am 24.3 SSE 5 9 1009.0 - 11.2 - - - - - - -
19/01:30am 24.4 SSE 4 5 1009.3 - 11.2 - - - - - - -
19/01:00am 24.3 SSE 5 7 1009.7 - 11.2 - - - - - - -
19/12:30am 24.4 SSE 5 7 1010.5 - 11.2 - - - - - - -
19/12:00am 24.3 SSE 6 8 1010.9 - 11.2 Rain - - - - - -
 
Date/Time
CST
Temp
°C
Wind Pressure Rain since
9am
mm
Weather Cloud Vis
km
Sea
Height
m
Swell
Dir  Spd
kts
Gust
kts
hPa Trend Height
m
Period
s
Dir
18/11:30pm 24.4 SSE 7 10 1011.3 - 11.0 - - - - - - -
18/11:00pm 24.8 SSE 10 15 1011.6 - 10.8 - - - - - - -
18/10:30pm 25.9 SSE 5 7 1011.9 - 10.0 - - - - - - -
18/10:00pm 26.0 S 5 7 1011.7 - 9.2 - - - - - - -
18/09:30pm 26.0 SE 4 5 1011.9 - 8.4 - - - - - - -
18/09:00pm 26.0 SSE 4 5 1011.6 - 7.4 Recent precip. - - - - - -
18/08:30pm 25.8 SE 5 6 1011.5 - 6.6 - - - - - - -
18/08:00pm 26.0 SE 4 5 1010.9 - 5.8 - - - - - - -
18/07:30pm 25.8 ESE 5 8 1010.5 - 5.0 - - - - - - -
18/07:00pm 26.3 E 5 8 1010.1 - 3.6 - - - - - - -
18/06:30pm 28.0 E 5 8 1010.0 - 0.0 - - - - - - -
18/06:00pm 28.5 ENE 6 9 1009.8 - 0.0 - - - - - - -
18/05:30pm 28.8 ENE 6 9 1009.3 - 0.0 - - - - - - -
18/05:00pm 29.1 NE 8 14 1008.9 - 0.0 - - - - - - -
18/04:30pm 29.7 ENE 10 16 1008.7 - 0.0 - - - - - - -
18/04:00pm 30.9 ENE 7 13 1008.4 - 0.0 - - - - - - -
18/03:30pm 31.4 ENE 8 13 1008.3 - 0.0 - - - - - - -
18/03:00pm 31.6 ENE 9 15 1008.3 - 0.0 - - - - - - -
18/02:30pm 30.5 E 10 16 1008.9 - 0.0 - - - - - - -
18/02:00pm 30.1 ENE 7 12 1008.7 - 0.0 - - - - - - -
18/01:30pm 29.9 ENE 9 15 1008.9 - 0.0 - - - - - - -
18/01:00pm 30.4 ENE 9 16 1009.4 - 0.0 - - - - - - -
18/12:30pm 31.2 ENE 10 13 1009.7 - 0.0 - - - - - - -
18/12:00pm 30.0 ESE 8 13 1010.2 - 0.0 - - - - - - -
18/11:30am 31.9 E 10 15 1010.8 - 0.0 - - - - - - -
18/11:00am 30.9 ESE 9 15 1011.1 - 0.0 - - - - - - -
18/10:30am 30.9 E 8 12 1011.4 - 0.0 - - - - - - -
18/10:00am 30.5 ESE 6 12 1011.4 - 0.0 - - - - - - -

Other Formats:

Comma delimited format used in spreadsheet applications
http://www.bom.gov.au/fwo/IDD60701/IDD60701.95146.axf

JavaScript Object Notation format (JSON) in row-major order
http://www.bom.gov.au/fwo/IDD60701/IDD60701.95146.json